This is the latest recevied weather packets stored in our database for station/object W6ORV. If no packets are shown the sender has not sent any weather packets the latest 10 day(s).
| Time | Temp. | Humidity | Pressure | Rain* | Wind** | Luminosity | Snow |
|---|---|---|---|---|---|---|---|
| 1777491487 | 26.67° C | 33% | 4301.5 hPa | 0 mm | - | 795 W/m² | - |
| 1777491184 | 26.11° C | 38% | 4301.7 hPa | 0 mm | - | 798 W/m² | - |
| 1777490880 | 26.11° C | 36% | 4301.7 hPa | 0 mm | - | 804 W/m² | - |
| 1777490576 | 26.11° C | 36% | 4301.8 hPa | 0 mm | - | 812 W/m² | - |
| 1777490272 | 26.11° C | 38% | 4301.8 hPa | 0 mm | - | 821 W/m² | - |
| 1777489061 | 25° C | 35% | 4301.8 hPa | 0 mm | - | 810 W/m² | - |
| 1777488456 | 23.89° C | 37% | 4302.1 hPa | 0 mm | - | 831 W/m² | - |
| 1777487852 | 23.89° C | 39% | 4302.4 hPa | 0 mm | - | 720 W/m² | - |
| 1777487549 | 23.89° C | 39% | 4302.3 hPa | 0 mm | - | 789 W/m² | - |
| 1777486639 | 23.89° C | 40% | 4302.4 hPa | 0 mm | - | 803 W/m² | - |
| 1777486337 | 23.33° C | 42% | 4302.5 hPa | 0 mm | - | 858 W/m² | - |
| 1777486034 | 23.89° C | 41% | 4302.4 hPa | 0 mm | - | 838 W/m² | - |
| 1777485731 | 23.89° C | 42% | 4302.7 hPa | 0 mm | - | 835 W/m² | - |
| 1777483909 | 20.56° C | 54% | 4303 hPa | 0 mm | - | 815 W/m² | - |
| 1777483605 | 19.44° C | 58% | 4302.7 hPa | 0 mm | - | 815 W/m² | - |
| 1777483300 | 18.89° C | 62% | 4302.9 hPa | 0 mm | - | 799 W/m² | - |
| 1777481178 | 17.22° C | 66% | 4303.4 hPa | 0 mm | - | 663 W/m² | - |
| 1777476930 | 12.78° C | 83% | 4303.5 hPa | 0 mm | - | 301 W/m² | - |
| 1777474501 | 9.44° C | 93% | 4303.6 hPa | 0 mm | - | 179 W/m² | - |
| 1777471770 | 6.67° C | 98% | 4303.9 hPa | 0 mm | - | 33 W/m² | - |
| 1777470558 | 5.56° C | 98% | 4303.7 hPa | 0 mm | - | 23 W/m² | - |
| 1777469950 | 5.56° C | 98% | 4303.5 hPa | 0 mm | - | 17 W/m² | - |
| 1777469645 | 5° C | 98% | 4303.6 hPa | 0 mm | - | 14 W/m² | - |
| 1777469341 | 5° C | 98% | 4303.7 hPa | 0 mm | - | 10 W/m² | - |
| 1777469036 | 5° C | 97% | 4303.7 hPa | 0 mm | - | 8 W/m² | - |
* Rain latest hour (hover to see other rain measurements)
** Current wind speed in m/s (hover to see current wind gust speed)